createdAt,value
2017-09-14T00:00:57.128Z,13.93
2017-09-14T00:03:26.644Z,13.90
2017-09-14T00:05:56.155Z,13.92
2017-09-14T00:08:25.669Z,13.95
2017-09-14T00:10:55.070Z,13.90
2017-09-14T00:13:24.396Z,13.87
2017-09-14T00:15:53.912Z,13.83
2017-09-14T00:18:23.432Z,13.84
2017-09-14T00:20:52.986Z,13.84
2017-09-14T00:23:22.308Z,13.85
2017-09-14T00:25:51.909Z,13.81
2017-09-14T00:28:21.235Z,13.82
2017-09-14T00:30:50.756Z,13.77
2017-09-14T00:33:20.797Z,13.76
2017-09-14T00:35:50.322Z,13.76
2017-09-14T00:38:19.681Z,13.79
2017-09-14T00:40:49.042Z,13.67
2017-09-14T00:43:19.419Z,13.71
2017-09-14T00:45:48.982Z,13.67
2017-09-14T00:48:18.447Z,13.63
2017-09-14T00:50:47.898Z,13.66
2017-09-14T00:53:17.260Z,13.64
2017-09-14T00:55:46.668Z,13.67
2017-09-14T00:58:16.096Z,13.63
2017-09-14T01:00:45.465Z,13.64
2017-09-14T01:03:14.896Z,13.62
2017-09-14T01:05:44.326Z,13.61
2017-09-14T01:08:13.721Z,13.62
2017-09-14T01:10:43.259Z,13.63
2017-09-14T01:13:12.604Z,13.66
2017-09-14T01:15:41.993Z,13.67
2017-09-14T01:18:11.328Z,13.72
2017-09-14T01:20:40.708Z,13.72
2017-09-14T01:23:10.010Z,13.73
2017-09-14T01:25:39.382Z,13.73
2017-09-14T01:28:08.625Z,13.75
2017-09-14T01:30:37.946Z,13.81
2017-09-14T01:33:07.174Z,13.81
2017-09-14T01:35:36.458Z,13.82
2017-09-14T01:38:08.906Z,13.89
2017-09-14T01:40:38.537Z,13.91
2017-09-14T01:43:07.756Z,13.93
2017-09-14T01:45:37.011Z,13.94
2017-09-14T01:48:06.230Z,13.94
2017-09-14T01:50:35.469Z,13.99
2017-09-14T01:53:04.850Z,14.03
2017-09-14T01:55:34.088Z,14.01
2017-09-14T01:58:03.341Z,14.07
2017-09-14T02:00:32.580Z,14.07
2017-09-14T02:03:01.882Z,14.10
2017-09-14T02:05:31.172Z,14.06
2017-09-14T02:08:00.518Z,14.03
2017-09-14T02:10:29.791Z,14.00
2017-09-14T02:12:59.311Z,13.99
2017-09-14T02:15:28.685Z,13.94
2017-09-14T02:17:57.968Z,13.90
2017-09-14T02:20:27.278Z,13.90
2017-09-14T02:22:56.774Z,13.87
2017-09-14T02:25:26.073Z,13.84
2017-09-14T02:27:55.300Z,13.80
2017-09-14T02:30:24.601Z,13.72
2017-09-14T02:32:53.824Z,13.76
2017-09-14T02:35:24.620Z,13.79
2017-09-14T02:37:54.430Z,13.85
2017-09-14T02:40:23.845Z,13.85
2017-09-14T02:43:00.000Z,13.79
2017-09-14T02:45:29.509Z,13.78
2017-09-14T02:47:58.768Z,13.79
2017-09-14T02:50:28.141Z,13.76
2017-09-14T02:52:57.446Z,13.83
2017-09-14T02:55:26.784Z,13.83
2017-09-14T02:57:56.037Z,13.79
2017-09-14T03:00:25.326Z,13.83
2017-09-14T03:02:54.609Z,13.84
2017-09-14T03:05:23.913Z,13.75
2017-09-14T03:07:53.162Z,13.76
2017-09-14T03:10:22.442Z,13.69
2017-09-14T03:12:51.707Z,13.73
2017-09-14T03:15:21.060Z,13.70
2017-09-14T03:17:50.449Z,13.70
2017-09-14T03:20:19.815Z,13.59
2017-09-14T03:22:49.083Z,13.57
2017-09-14T03:25:18.407Z,13.61
2017-09-14T03:27:47.705Z,13.59
2017-09-14T03:30:16.984Z,13.59
2017-09-14T03:32:46.265Z,13.61
2017-09-14T03:35:15.677Z,13.55
2017-09-14T03:37:45.022Z,13.52
2017-09-14T03:40:14.334Z,13.57
2017-09-14T03:42:43.736Z,13.52
2017-09-14T03:45:13.021Z,13.54
2017-09-14T03:47:42.281Z,13.48
2017-09-14T03:50:11.552Z,13.48
2017-09-14T03:52:40.790Z,13.56
2017-09-14T03:55:10.112Z,13.54
2017-09-14T03:57:39.353Z,13.54
2017-09-14T04:03:09.605Z,13.55
2017-09-14T04:05:38.948Z,13.60
2017-09-14T04:08:08.405Z,13.58
2017-09-14T04:10:37.760Z,13.61
2017-09-14T04:13:07.031Z,13.67
2017-09-14T04:15:36.351Z,13.67
2017-09-14T04:18:05.828Z,13.70
2017-09-14T04:20:35.392Z,13.65
2017-09-14T04:23:04.648Z,13.75
2017-09-14T04:25:34.064Z,13.80
2017-09-14T04:28:03.472Z,13.82
2017-09-14T04:30:32.849Z,13.85
2017-09-14T04:33:02.188Z,13.84
2017-09-14T04:35:31.547Z,13.84
2017-09-14T04:38:00.897Z,13.83
2017-09-14T04:40:30.241Z,13.85
2017-09-14T04:42:59.588Z,13.90
2017-09-14T04:45:29.017Z,13.90
2017-09-14T04:47:58.412Z,13.90
2017-09-14T04:50:29.431Z,13.92
2017-09-14T04:52:59.164Z,13.92
2017-09-14T04:55:28.587Z,13.84
2017-09-14T04:57:57.969Z,13.87
2017-09-14T05:00:27.983Z,13.88
2017-09-14T05:02:57.445Z,13.81
2017-09-14T05:05:27.050Z,13.81
2017-09-14T05:07:57.784Z,13.75
2017-09-14T05:10:27.096Z,13.71
2017-09-14T05:12:56.424Z,13.74
2017-09-14T05:15:25.810Z,13.69
2017-09-14T05:18:00.852Z,13.69
2017-09-14T05:20:31.736Z,13.66
2017-09-14T05:23:01.096Z,13.70
2017-09-14T05:25:30.499Z,13.66
2017-09-14T05:27:59.809Z,13.62
2017-09-14T05:30:29.190Z,13.58
2017-09-14T05:32:58.788Z,13.66
2017-09-14T05:35:28.112Z,13.63
2017-09-14T05:37:58.063Z,13.63
2017-09-14T05:40:27.403Z,13.57
2017-09-14T05:42:57.313Z,13.59
2017-09-14T05:45:26.717Z,13.61
2017-09-14T05:47:56.035Z,13.61
2017-09-14T05:50:25.368Z,13.59
2017-09-14T05:52:54.690Z,13.56
2017-09-14T05:55:24.006Z,13.60
2017-09-14T05:57:53.285Z,13.63
2017-09-14T06:00:22.638Z,13.60
2017-09-14T06:02:52.114Z,13.62
2017-09-14T06:05:21.443Z,13.60
2017-09-14T06:07:50.767Z,13.62
2017-09-14T06:10:20.216Z,13.64
2017-09-14T06:12:49.564Z,13.67
2017-09-14T06:15:18.883Z,13.64
2017-09-14T06:17:49.067Z,13.66
2017-09-14T06:20:18.625Z,13.70
2017-09-14T06:22:47.975Z,13.64
2017-09-14T06:25:17.623Z,13.70
2017-09-14T06:27:46.985Z,13.68
2017-09-14T06:30:16.386Z,13.66
2017-09-14T06:32:45.679Z,13.68
2017-09-14T06:35:15.132Z,13.69
2017-09-14T06:37:44.455Z,13.63
2017-09-14T06:40:14.422Z,13.64
2017-09-14T06:42:43.707Z,13.79
2017-09-14T06:45:13.077Z,13.81
2017-09-14T06:47:42.418Z,13.86
2017-09-14T06:50:11.932Z,13.87
2017-09-14T06:52:42.128Z,14.01
2017-09-14T06:55:11.862Z,14.07
2017-09-14T06:57:41.600Z,14.15
2017-09-14T07:00:11.048Z,14.10
2017-09-14T07:02:40.459Z,14.14
2017-09-14T07:05:09.906Z,14.16
2017-09-14T07:07:39.286Z,14.13
2017-09-14T07:10:08.693Z,14.21
2017-09-14T07:12:38.006Z,14.23
2017-09-14T07:15:07.424Z,14.32
2017-09-14T07:17:36.722Z,14.32
2017-09-14T07:20:06.109Z,14.29
2017-09-14T07:22:37.032Z,14.19
2017-09-14T07:25:08.544Z,14.18
2017-09-14T07:27:37.883Z,14.20
2017-09-14T07:31:14.061Z,14.22
2017-09-14T07:36:28.854Z,14.44
2017-09-14T07:38:58.657Z,14.45
2017-09-14T07:41:28.056Z,14.46
2017-09-14T07:43:57.480Z,14.40
2017-09-14T07:46:27.252Z,14.57
2017-09-14T07:48:57.267Z,14.65
2017-09-14T07:51:27.197Z,14.58
2017-09-14T07:53:57.205Z,14.71
2017-09-14T07:56:26.519Z,14.68
2017-09-14T07:58:55.796Z,14.67
2017-09-14T08:01:29.268Z,14.62
2017-09-14T08:03:58.675Z,14.73
2017-09-14T08:06:37.406Z,14.67
2017-09-14T08:09:07.056Z,14.92
2017-09-14T08:11:36.403Z,14.81
2017-09-14T08:14:05.758Z,14.85
2017-09-14T08:16:37.368Z,14.88
2017-09-14T08:19:06.704Z,14.87
2017-09-14T08:21:36.039Z,14.92
2017-09-14T08:24:05.338Z,15.01
2017-09-14T08:26:34.999Z,15.01
2017-09-14T08:29:04.311Z,15.11
2017-09-14T08:31:33.615Z,15.20
2017-09-14T08:34:02.937Z,15.12
2017-09-14T08:36:32.267Z,15.04
2017-09-14T08:39:01.594Z,15.11
2017-09-14T08:41:31.131Z,15.12
2017-09-14T08:44:00.400Z,15.17
2017-09-14T08:46:29.741Z,15.28
2017-09-14T08:48:59.023Z,15.32
2017-09-14T08:51:29.022Z,15.33
2017-09-14T08:53:58.297Z,15.34
2017-09-14T08:56:27.730Z,15.36
2017-09-14T08:58:57.009Z,15.33
2017-09-14T09:01:26.320Z,15.31
2017-09-14T09:03:55.671Z,15.40
2017-09-14T09:06:24.987Z,15.31
2017-09-14T09:08:54.319Z,15.41
2017-09-14T09:11:23.657Z,15.41
2017-09-14T09:13:52.945Z,15.42
2017-09-14T09:16:22.343Z,15.55
2017-09-14T09:18:51.619Z,15.57
2017-09-14T09:21:21.048Z,15.54
2017-09-14T09:23:50.338Z,15.42
2017-09-14T09:26:19.733Z,15.35
2017-09-14T09:28:49.011Z,15.33
2017-09-14T09:31:19.934Z,15.27
2017-09-14T09:33:49.199Z,15.39
2017-09-14T09:36:18.585Z,15.53
2017-09-14T09:38:47.848Z,15.52
2017-09-14T09:41:19.440Z,15.54
2017-09-14T09:43:49.086Z,15.56
2017-09-14T09:46:18.571Z,15.49
2017-09-14T09:48:48.040Z,15.46
2017-09-14T09:51:17.504Z,15.39
2017-09-14T09:53:47.384Z,15.40
2017-09-14T09:56:20.024Z,15.46
2017-09-14T09:58:50.195Z,15.35
2017-09-14T10:01:19.552Z,15.33
2017-09-14T10:03:49.003Z,15.28
2017-09-14T10:06:19.287Z,15.40
2017-09-14T10:08:48.642Z,15.32
2017-09-14T10:11:18.014Z,15.34
2017-09-14T10:13:47.359Z,15.35
2017-09-14T10:16:16.731Z,15.37
2017-09-14T10:18:46.060Z,15.36
2017-09-14T10:21:15.401Z,15.40
2017-09-14T10:23:44.693Z,15.33
2017-09-14T10:26:14.249Z,15.36
2017-09-14T10:28:43.598Z,15.39
2017-09-14T10:31:13.064Z,15.45
2017-09-14T10:33:42.848Z,15.69
2017-09-14T10:36:13.130Z,15.65
2017-09-14T10:38:43.798Z,15.76
2017-09-14T10:41:13.693Z,15.85
2017-09-14T10:48:04.137Z,15.90
2017-09-14T10:50:33.782Z,15.84
2017-09-14T10:53:04.812Z,15.77
2017-09-14T10:55:34.928Z,15.77
2017-09-14T10:58:05.017Z,15.47
2017-09-14T11:00:37.989Z,15.49
2017-09-14T11:03:10.201Z,15.31
2017-09-14T11:05:39.608Z,15.44
2017-09-14T11:08:13.763Z,15.43
2017-09-14T11:10:48.868Z,15.42
2017-09-14T11:13:20.457Z,15.40
2017-09-14T11:15:50.333Z,15.33
2017-09-14T11:18:20.604Z,15.12
2017-09-14T11:20:50.187Z,15.08
2017-09-14T11:23:19.563Z,14.81
2017-09-14T11:25:50.949Z,14.66
2017-09-14T11:28:24.532Z,14.51
2017-09-14T11:30:59.862Z,14.27
2017-09-14T11:33:29.304Z,14.29
2017-09-14T11:36:03.704Z,14.22
2017-09-14T11:38:34.334Z,14.25
2017-09-14T11:41:06.461Z,14.38
2017-09-14T11:43:37.597Z,14.50
2017-09-14T11:46:08.225Z,14.61
2017-09-14T11:48:39.012Z,14.74
2017-09-14T11:51:12.705Z,14.83
2017-09-14T11:53:46.875Z,14.92
2017-09-14T11:56:16.896Z,15.09
2017-09-14T11:58:56.829Z,15.23
2017-09-14T12:01:39.006Z,14.94
2017-09-14T12:04:16.805Z,15.46
2017-09-14T12:06:50.792Z,15.60
2017-09-14T12:09:20.598Z,15.73
2017-09-14T12:11:52.817Z,15.77
2017-09-14T12:14:23.298Z,15.85
2017-09-14T12:16:53.665Z,15.88
2017-09-14T12:19:23.863Z,15.84
2017-09-14T12:21:53.565Z,15.70
2017-09-14T12:24:23.577Z,15.78
2017-09-14T12:26:54.071Z,15.70
2017-09-14T12:29:23.763Z,15.67
2017-09-14T12:31:57.361Z,15.80
2017-09-14T12:34:27.120Z,15.93
2017-09-14T12:37:00.139Z,15.87
2017-09-14T12:39:30.972Z,15.95
2017-09-14T12:42:00.328Z,16.19
2017-09-14T12:44:31.100Z,16.29
2017-09-14T12:47:00.776Z,16.33
2017-09-14T12:49:31.699Z,16.24
2017-09-14T12:52:03.355Z,16.28
2017-09-14T12:54:36.793Z,16.25
2017-09-14T12:57:06.522Z,16.19
2017-09-14T12:59:36.167Z,16.05
2017-09-14T13:02:05.976Z,15.98
2017-09-14T13:04:36.579Z,15.93
2017-09-14T13:07:06.239Z,15.97
2017-09-14T13:09:35.604Z,15.75
2017-09-14T13:12:06.356Z,15.80
2017-09-14T13:14:37.993Z,15.90
2017-09-14T13:17:07.591Z,16.09
2017-09-14T13:19:37.820Z,16.16
2017-09-14T13:22:09.009Z,16.14
2017-09-14T13:24:38.335Z,16.03
2017-09-14T13:27:08.553Z,16.14
2017-09-14T13:30:03.860Z,16.20
2017-09-14T13:32:39.657Z,16.08
2017-09-14T13:38:09.086Z,15.98
2017-09-14T13:40:38.784Z,15.98
2017-09-14T13:43:10.177Z,15.93
2017-09-14T13:45:41.365Z,15.93
2017-09-14T13:48:14.557Z,15.81
2017-09-14T13:50:46.348Z,15.83
2017-09-14T13:53:17.341Z,15.89
2017-09-14T13:55:46.962Z,15.93
2017-09-14T13:58:20.131Z,16.10
2017-09-14T14:00:50.241Z,16.13
2017-09-14T14:03:20.923Z,15.98
2017-09-14T14:05:51.056Z,16.00
2017-09-14T14:08:20.433Z,15.98
2017-09-14T14:10:51.168Z,15.85
2017-09-14T14:13:21.096Z,16.02
2017-09-14T14:15:50.840Z,16.02
2017-09-14T14:18:20.174Z,15.97
2017-09-14T14:20:50.560Z,15.86
2017-09-14T14:23:21.414Z,15.86
2017-09-14T14:25:53.806Z,15.85
2017-09-14T14:28:24.687Z,15.90
2017-09-14T14:30:55.323Z,15.93
2017-09-14T14:33:24.823Z,15.88
2017-09-14T14:35:59.060Z,15.84
2017-09-14T14:38:31.524Z,15.88
2017-09-14T14:41:01.896Z,15.83
2017-09-14T14:43:31.344Z,15.73
2017-09-14T14:46:02.473Z,15.65
2017-09-14T14:48:32.204Z,15.64
2017-09-14T14:51:02.557Z,15.61
2017-09-14T14:53:33.125Z,15.54
2017-09-14T14:56:02.647Z,15.52
2017-09-14T14:58:32.366Z,15.35
2017-09-14T15:01:02.008Z,15.22
2017-09-14T15:03:32.073Z,14.98
2017-09-14T15:06:01.629Z,14.66
2017-09-14T15:08:31.987Z,14.32
2017-09-14T15:11:02.614Z,13.89
2017-09-14T15:13:32.360Z,13.67
2017-09-14T15:16:02.934Z,13.58
2017-09-14T15:18:35.356Z,13.63
2017-09-14T15:21:05.484Z,13.52
2017-09-14T15:23:35.490Z,13.50
2017-09-14T15:26:04.991Z,13.53
2017-09-14T15:28:38.269Z,13.57
2017-09-14T15:31:07.661Z,13.56
2017-09-14T15:33:37.174Z,13.61
2017-09-14T15:36:07.949Z,13.73
2017-09-14T15:38:42.347Z,13.74
2017-09-14T15:41:44.152Z,13.80
2017-09-14T15:44:17.874Z,13.75
2017-09-14T15:46:47.274Z,13.63
2017-09-14T15:49:20.892Z,13.51
2017-09-14T15:51:53.791Z,13.45
2017-09-14T15:54:24.896Z,13.32
2017-09-14T15:56:54.355Z,13.32
2017-09-14T15:59:24.919Z,13.22
2017-09-14T16:01:57.118Z,13.21
2017-09-14T16:04:27.569Z,13.26
2017-09-14T16:06:56.976Z,13.21
2017-09-14T16:09:28.035Z,13.23
2017-09-14T16:12:04.674Z,13.12
2017-09-14T16:14:34.752Z,13.02
2017-09-14T16:17:07.829Z,13.03
2017-09-14T16:19:39.750Z,13.07
2017-09-14T16:22:15.186Z,13.10
2017-09-14T16:24:47.116Z,12.98
2017-09-14T16:27:17.732Z,13.05
2017-09-14T16:30:09.003Z,12.90
2017-09-14T16:32:38.907Z,13.01
2017-09-14T16:35:14.746Z,13.03
2017-09-14T16:37:50.273Z,13.04
2017-09-14T16:40:23.126Z,13.01
2017-09-14T16:43:04.035Z,12.97
2017-09-14T16:45:38.990Z,12.97
2017-09-14T16:48:11.097Z,12.93
2017-09-14T16:50:42.481Z,12.98
2017-09-14T16:53:17.413Z,12.98
2017-09-14T16:55:53.780Z,13.05
2017-09-14T16:58:31.061Z,13.02
2017-09-14T17:01:07.691Z,12.93
2017-09-14T17:03:44.344Z,12.88
2017-09-14T17:06:26.742Z,12.90
2017-09-14T17:11:41.010Z,12.91
2017-09-14T17:14:13.008Z,12.90
2017-09-14T17:16:47.188Z,12.87
2017-09-14T17:19:17.005Z,12.85
2017-09-14T17:21:49.678Z,12.81
2017-09-14T17:24:20.100Z,12.80
2017-09-14T17:26:52.238Z,12.78
2017-09-14T17:29:32.283Z,12.72
2017-09-14T17:32:12.197Z,12.67
2017-09-14T17:34:48.200Z,12.65
2017-09-14T17:37:17.832Z,12.60
2017-09-14T17:40:24.745Z,12.58
2017-09-14T17:43:02.376Z,12.55
2017-09-14T17:49:33.233Z,12.47
2017-09-14T17:52:18.941Z,12.49
2017-09-14T17:54:57.878Z,12.48
2017-09-14T17:57:32.230Z,12.46
2017-09-14T18:00:05.149Z,12.48
2017-09-14T18:06:01.698Z,12.49
2017-09-14T18:08:39.036Z,12.48
2017-09-14T18:11:25.049Z,12.48
2017-09-14T18:13:56.569Z,12.45
2017-09-14T18:16:33.623Z,12.41
2017-09-14T18:20:07.322Z,12.40
2017-09-14T18:29:22.854Z,12.25
2017-09-14T18:31:53.435Z,12.18
2017-09-14T18:34:23.189Z,12.15
2017-09-14T18:36:55.052Z,12.13
2017-09-14T18:39:28.520Z,12.07
2017-09-14T18:41:57.917Z,12.05
2017-09-14T18:44:28.020Z,12.01
2017-09-14T18:46:59.320Z,12.01
2017-09-14T18:49:28.924Z,11.98
2017-09-14T18:51:58.851Z,11.96
2017-09-14T18:54:29.213Z,11.93
2017-09-14T18:57:04.127Z,11.89
2017-09-14T18:59:33.916Z,11.88
2017-09-14T19:02:03.972Z,11.85
2017-09-14T19:04:34.752Z,11.83
2017-09-14T19:07:06.564Z,11.83
2017-09-14T19:09:35.820Z,11.81
2017-09-14T19:12:05.376Z,11.80
2017-09-14T19:14:35.785Z,11.81
2017-09-14T19:17:11.530Z,11.82
2017-09-14T19:19:44.696Z,11.81
2017-09-14T19:22:16.885Z,11.80
2017-09-14T19:24:46.289Z,11.80
2017-09-14T19:27:15.723Z,11.81
2017-09-14T19:29:45.405Z,11.80
2017-09-14T19:32:35.780Z,11.82
2017-09-14T19:35:06.024Z,11.82
2017-09-14T19:37:35.691Z,11.83
2017-09-14T19:40:09.569Z,11.87
2017-09-14T19:43:41.604Z,11.94
2017-09-14T19:46:17.069Z,11.93
2017-09-14T19:48:49.100Z,11.86
2017-09-14T19:51:19.296Z,12.01
2017-09-14T19:53:49.680Z,12.00
2017-09-14T19:56:21.666Z,12.08
2017-09-14T19:58:54.348Z,12.08
2017-09-14T20:01:28.520Z,12.12
2017-09-14T20:04:06.945Z,12.12
2017-09-14T20:06:48.807Z,12.18
2017-09-14T20:10:51.660Z,11.82
2017-09-14T20:13:23.481Z,12.19
2017-09-14T20:16:07.521Z,12.22
2017-09-14T20:18:41.864Z,12.28
2017-09-14T20:21:29.398Z,12.26
2017-09-14T20:23:59.514Z,12.27
2017-09-14T20:26:29.060Z,12.31
2017-09-14T20:29:01.213Z,12.30
2017-09-14T20:31:30.592Z,12.28
2017-09-14T20:34:01.543Z,12.30
2017-09-14T20:36:43.530Z,12.35
2017-09-14T20:39:36.596Z,12.37
2017-09-14T20:42:16.637Z,12.39
2017-09-14T20:44:56.643Z,12.38
2017-09-14T20:47:46.774Z,12.43
2017-09-14T20:50:23.581Z,12.40
2017-09-14T20:53:01.475Z,12.42
2017-09-14T20:55:34.780Z,12.46
2017-09-14T20:58:15.503Z,12.45
2017-09-14T21:00:55.636Z,12.44
2017-09-14T21:03:28.411Z,12.47
2017-09-14T21:06:31.364Z,12.40
2017-09-14T21:09:05.405Z,12.49
2017-09-14T21:11:38.763Z,12.56
2017-09-14T21:14:11.630Z,12.52
2017-09-14T21:16:44.916Z,12.50
2017-09-14T21:19:22.631Z,12.52
2017-09-14T21:21:56.833Z,12.56
2017-09-14T21:25:30.476Z,12.52
2017-09-14T21:28:06.385Z,12.49
2017-09-14T21:30:42.621Z,12.51
2017-09-14T21:36:16.160Z,12.06
2017-09-14T21:38:49.851Z,12.46
2017-09-14T21:41:28.351Z,12.46
2017-09-14T21:46:42.970Z,12.59
2017-09-14T21:49:18.378Z,12.67
2017-09-14T21:52:02.165Z,12.68
2017-09-14T21:54:51.677Z,12.66
2017-09-14T21:57:33.302Z,12.57
2017-09-14T22:00:17.110Z,12.47
2017-09-14T22:03:02.597Z,12.44
2017-09-14T22:05:40.266Z,12.44
2017-09-14T22:08:26.922Z,12.48
2017-09-14T22:11:01.830Z,12.42
2017-09-14T22:13:44.728Z,12.46
2017-09-14T22:16:26.013Z,12.42
2017-09-14T22:19:13.351Z,12.44
2017-09-14T22:24:26.719Z,12.37
2017-09-14T22:27:00.344Z,12.38
2017-09-14T22:29:31.937Z,12.40
2017-09-14T22:32:06.593Z,12.33
2017-09-14T22:34:36.989Z,12.31
2017-09-14T22:37:11.855Z,12.29
2017-09-14T22:39:57.115Z,12.27
2017-09-14T22:42:34.808Z,12.20
2017-09-14T22:45:07.077Z,11.88
2017-09-14T22:50:36.395Z,12.08
2017-09-14T22:53:17.264Z,11.95
2017-09-14T22:56:03.158Z,11.71
2017-09-14T22:58:41.224Z,11.93
2017-09-14T23:01:18.745Z,11.85
2017-09-14T23:03:57.386Z,11.86
2017-09-14T23:06:36.499Z,11.82
2017-09-14T23:09:19.272Z,11.76
2017-09-14T23:11:54.836Z,11.75
2017-09-14T23:14:41.553Z,11.76
2017-09-14T23:17:17.840Z,11.68
2017-09-14T23:19:48.966Z,11.69
2017-09-14T23:22:18.612Z,11.62
2017-09-14T23:24:47.985Z,11.66
2017-09-14T23:27:17.574Z,11.61
2017-09-14T23:29:46.945Z,11.68
2017-09-14T23:32:16.416Z,11.73
2017-09-14T23:34:45.906Z,11.68
2017-09-14T23:37:15.484Z,11.69
2017-09-14T23:39:44.908Z,11.65
2017-09-14T23:42:14.371Z,11.67
2017-09-14T23:44:43.775Z,11.67
2017-09-14T23:47:13.248Z,11.69
2017-09-14T23:49:42.949Z,11.61
2017-09-14T23:52:12.468Z,11.63
2017-09-14T23:54:43.236Z,11.57
2017-09-14T23:57:13.400Z,11.62
2017-09-14T23:59:42.762Z,11.64
